sensor_id;sensor_type;location;lat;lon;timestamp;pressure;altitude;pressure_sealevel;temperature;humidity
4590;BME280;2307;48.448;9.216;2023-07-16T00:00:40;95319.91;;;20.79;100.00
4590;BME280;2307;48.448;9.216;2023-07-16T00:03:06;95318.31;;;20.78;100.00
4590;BME280;2307;48.448;9.216;2023-07-16T00:05:33;95311.34;;;20.77;100.00
4590;BME280;2307;48.448;9.216;2023-07-16T00:07:59;95327.66;;;20.81;100.00
4590;BME280;2307;48.448;9.216;2023-07-16T00:10:26;95358.09;;;20.76;100.00
4590;BME280;2307;48.448;9.216;2023-07-16T00:12:52;95369.34;;;20.51;100.00
4590;BME280;2307;48.448;9.216;2023-07-16T00:15:20;95396.28;;;19.95;100.00
4590;BME280;2307;48.448;9.216;2023-07-16T00:17:46;95394.38;;;19.63;100.00
4590;BME280;2307;48.448;9.216;2023-07-16T00:20:12;95384.00;;;19.43;100.00
4590;BME280;2307;48.448;9.216;2023-07-16T00:22:39;95391.56;;;19.36;100.00
4590;BME280;2307;48.448;9.216;2023-07-16T00:25:06;95406.59;;;19.32;100.00
4590;BME280;2307;48.448;9.216;2023-07-16T00:27:32;95401.09;;;19.23;100.00
4590;BME280;2307;48.448;9.216;2023-07-16T00:29:58;95409.50;;;19.17;100.00
4590;BME280;2307;48.448;9.216;2023-07-16T00:32:26;95399.66;;;19.12;100.00
4590;BME280;2307;48.448;9.216;2023-07-16T00:34:52;95372.22;;;19.01;100.00
4590;BME280;2307;48.448;9.216;2023-07-16T00:37:19;95383.50;;;18.98;100.00
4590;BME280;2307;48.448;9.216;2023-07-16T00:39:45;95391.66;;;18.88;100.00
4590;BME280;2307;48.448;9.216;2023-07-16T00:42:12;95379.19;;;18.79;100.00
4590;BME280;2307;48.448;9.216;2023-07-16T00:44:38;95377.72;;;18.68;100.00
4590;BME280;2307;48.448;9.216;2023-07-16T00:47:04;95394.56;;;18.68;100.00
4590;BME280;2307;48.448;9.216;2023-07-16T00:49:32;95390.25;;;18.72;100.00
4590;BME280;2307;48.448;9.216;2023-07-16T00:51:59;95403.34;;;18.50;100.00
4590;BME280;2307;48.448;9.216;2023-07-16T00:54:26;95390.19;;;18.25;100.00
4590;BME280;2307;48.448;9.216;2023-07-16T00:56:52;95375.44;;;18.03;100.00
4590;BME280;2307;48.448;9.216;2023-07-16T00:59:19;95364.88;;;17.88;100.00
4590;BME280;2307;48.448;9.216;2023-07-16T01:01:45;95375.72;;;17.68;100.00
4590;BME280;2307;48.448;9.216;2023-07-16T01:04:12;95392.63;;;17.59;100.00
4590;BME280;2307;48.448;9.216;2023-07-16T01:06:41;95386.97;;;17.65;100.00
4590;BME280;2307;48.448;9.216;2023-07-16T01:09:08;95376.31;;;17.60;100.00
4590;BME280;2307;48.448;9.216;2023-07-16T01:11:36;95363.59;;;17.42;100.00
4590;BME280;2307;48.448;9.216;2023-07-16T01:14:03;95369.00;;;17.37;100.00
4590;BME280;2307;48.448;9.216;2023-07-16T01:16:31;95369.81;;;17.32;100.00
4590;BME280;2307;48.448;9.216;2023-07-16T01:18:58;95370.69;;;17.23;100.00
4590;BME280;2307;48.448;9.216;2023-07-16T01:21:24;95384.56;;;17.20;100.00
4590;BME280;2307;48.448;9.216;2023-07-16T01:24:09;95384.06;;;17.18;100.00
4590;BME280;2307;48.448;9.216;2023-07-16T01:26:44;95393.34;;;17.25;100.00
4590;BME280;2307;48.448;9.216;2023-07-16T01:32:00;95401.66;;;17.19;100.00
4590;BME280;2307;48.448;9.216;2023-07-16T01:34:29;95394.66;;;17.33;100.00
4590;BME280;2307;48.448;9.216;2023-07-16T01:36:56;95404.28;;;17.29;100.00
4590;BME280;2307;48.448;9.216;2023-07-16T01:39:22;95377.56;;;17.29;100.00
4590;BME280;2307;48.448;9.216;2023-07-16T01:41:49;95386.69;;;17.28;100.00
4590;BME280;2307;48.448;9.216;2023-07-16T01:44:15;95381.09;;;17.24;100.00
4590;BME280;2307;48.448;9.216;2023-07-16T01:46:41;95369.56;;;17.29;100.00
4590;BME280;2307;48.448;9.216;2023-07-16T01:49:09;95375.41;;;17.36;100.00
4590;BME280;2307;48.448;9.216;2023-07-16T01:51:35;95369.25;;;17.40;100.00
4590;BME280;2307;48.448;9.216;2023-07-16T01:54:02;95371.06;;;17.45;100.00
4590;BME280;2307;48.448;9.216;2023-07-16T01:56:28;95372.66;;;17.46;100.00
4590;BME280;2307;48.448;9.216;2023-07-16T01:58:55;95367.84;;;17.48;100.00
4590;BME280;2307;48.448;9.216;2023-07-16T02:01:21;95366.47;;;17.56;100.00
4590;BME280;2307;48.448;9.216;2023-07-16T02:03:48;95361.66;;;17.52;100.00
4590;BME280;2307;48.448;9.216;2023-07-16T02:06:15;95358.25;;;17.47;100.00
4590;BME280;2307;48.448;9.216;2023-07-16T02:08:42;95362.00;;;17.46;100.00
4590;BME280;2307;48.448;9.216;2023-07-16T02:11:08;95364.66;;;17.46;100.00
4590;BME280;2307;48.448;9.216;2023-07-16T02:13:34;95359.31;;;17.46;100.00
4590;BME280;2307;48.448;9.216;2023-07-16T02:16:01;95369.16;;;17.56;100.00
4590;BME280;2307;48.448;9.216;2023-07-16T02:18:27;95364.56;;;17.61;100.00
4590;BME280;2307;48.448;9.216;2023-07-16T02:20:53;95361.31;;;17.69;100.00
4590;BME280;2307;48.448;9.216;2023-07-16T02:23:21;95357.06;;;17.63;100.00
4590;BME280;2307;48.448;9.216;2023-07-16T02:25:48;95370.16;;;17.65;100.00
4590;BME280;2307;48.448;9.216;2023-07-16T02:28:14;95376.38;;;17.55;100.00
4590;BME280;2307;48.448;9.216;2023-07-16T02:30:40;95380.56;;;17.66;100.00
4590;BME280;2307;48.448;9.216;2023-07-16T02:33:07;95383.25;;;17.66;100.00
4590;BME280;2307;48.448;9.216;2023-07-16T02:35:33;95378.44;;;17.63;100.00
4590;BME280;2307;48.448;9.216;2023-07-16T02:37:59;95383.25;;;17.66;100.00
4590;BME280;2307;48.448;9.216;2023-07-16T02:40:27;95382.56;;;17.84;100.00
4590;BME280;2307;48.448;9.216;2023-07-16T02:42:53;95400.75;;;18.11;100.00
4590;BME280;2307;48.448;9.216;2023-07-16T02:45:20;95396.84;;;17.98;100.00
4590;BME280;2307;48.448;9.216;2023-07-16T02:47:46;95411.69;;;17.81;100.00
4590;BME280;2307;48.448;9.216;2023-07-16T02:50:13;95414.19;;;17.67;100.00
4590;BME280;2307;48.448;9.216;2023-07-16T02:52:39;95414.75;;;17.64;100.00
4590;BME280;2307;48.448;9.216;2023-07-16T02:55:05;95415.56;;;17.65;100.00
4590;BME280;2307;48.448;9.216;2023-07-16T02:57:33;95414.84;;;17.49;100.00
4590;BME280;2307;48.448;9.216;2023-07-16T03:00:00;95433.03;;;17.47;100.00
4590;BME280;2307;48.448;9.216;2023-07-16T03:02:26;95444.47;;;17.47;100.00
4590;BME280;2307;48.448;9.216;2023-07-16T03:04:52;95458.94;;;17.41;100.00
4590;BME280;2307;48.448;9.216;2023-07-16T03:07:19;95442.41;;;17.39;100.00
4590;BME280;2307;48.448;9.216;2023-07-16T03:09:45;95445.28;;;17.48;100.00
4590;BME280;2307;48.448;9.216;2023-07-16T03:12:12;95450.59;;;17.58;100.00
4590;BME280;2307;48.448;9.216;2023-07-16T03:14:39;95451.09;;;17.65;100.00
4590;BME280;2307;48.448;9.216;2023-07-16T03:17:06;95461.47;;;17.72;100.00
4590;BME280;2307;48.448;9.216;2023-07-16T03:19:32;95473.41;;;17.79;100.00
4590;BME280;2307;48.448;9.216;2023-07-16T03:21:59;95463.78;;;17.83;100.00
4590;BME280;2307;48.448;9.216;2023-07-16T03:24:25;95448.84;;;17.77;100.00
4590;BME280;2307;48.448;9.216;2023-07-16T03:26:51;95453.16;;;17.73;100.00
4590;BME280;2307;48.448;9.216;2023-07-16T03:29:18;95463.03;;;17.73;100.00
4590;BME280;2307;48.448;9.216;2023-07-16T03:31:46;95466.50;;;17.78;100.00
4590;BME280;2307;48.448;9.216;2023-07-16T03:34:12;95470.53;;;17.71;100.00
4590;BME280;2307;48.448;9.216;2023-07-16T03:36:39;95482.34;;;17.65;100.00
4590;BME280;2307;48.448;9.216;2023-07-16T03:39:05;95482.84;;;17.72;100.00
4590;BME280;2307;48.448;9.216;2023-07-16T03:41:31;95500.22;;;17.69;100.00
4590;BME280;2307;48.448;9.216;2023-07-16T03:43:58;95503.97;;;17.63;100.00
4590;BME280;2307;48.448;9.216;2023-07-16T03:46:24;95494.13;;;17.59;100.00
4590;BME280;2307;48.448;9.216;2023-07-16T03:48:52;95490.66;;;17.58;100.00
4590;BME280;2307;48.448;9.216;2023-07-16T03:51:19;95499.22;;;17.55;100.00
4590;BME280;2307;48.448;9.216;2023-07-16T03:53:45;95503.47;;;17.51;100.00
4590;BME280;2307;48.448;9.216;2023-07-16T03:56:12;95514.13;;;17.61;100.00
4590;BME280;2307;48.448;9.216;2023-07-16T03:58:38;95511.75;;;17.54;100.00
4590;BME280;2307;48.448;9.216;2023-07-16T04:01:04;95492.53;;;17.58;100.00
4590;BME280;2307;48.448;9.216;2023-07-16T04:03:31;95513.34;;;17.61;100.00
4590;BME280;2307;48.448;9.216;2023-07-16T04:06:02;95490.16;;;17.46;100.00
4590;BME280;2307;48.448;9.216;2023-07-16T04:08:28;95485.63;;;17.46;100.00
4590;BME280;2307;48.448;9.216;2023-07-16T04:10:55;95487.44;;;17.51;100.00
4590;BME280;2307;48.448;9.216;2023-07-16T04:13:21;95501.91;;;17.45;100.00
4590;BME280;2307;48.448;9.216;2023-07-16T04:15:47;95519.53;;;17.41;100.00
4590;BME280;2307;48.448;9.216;2023-07-16T04:18:14;95534.19;;;17.53;100.00
4590;BME280;2307;48.448;9.216;2023-07-16T04:20:40;95531.78;;;17.52;100.00
4590;BME280;2307;48.448;9.216;2023-07-16T04:23:08;95524.06;;;17.56;100.00
4590;BME280;2307;48.448;9.216;2023-07-16T04:25:34;95536.59;;;17.55;100.00
4590;BME280;2307;48.448;9.216;2023-07-16T04:28:00;95529.91;;;17.52;100.00
4590;BME280;2307;48.448;9.216;2023-07-16T04:30:29;95535.00;;;17.59;100.00
4590;BME280;2307;48.448;9.216;2023-07-16T04:32:55;95547.81;;;17.57;100.00
4590;BME280;2307;48.448;9.216;2023-07-16T04:35:21;95549.97;;;17.50;100.00
4590;BME280;2307;48.448;9.216;2023-07-16T04:37:48;95544.38;;;17.41;100.00
4590;BME280;2307;48.448;9.216;2023-07-16T04:40:15;95546.50;;;17.44;100.00
4590;BME280;2307;48.448;9.216;2023-07-16T04:42:42;95548.91;;;17.41;100.00
4590;BME280;2307;48.448;9.216;2023-07-16T04:45:08;95554.03;;;17.32;100.00
4590;BME280;2307;48.448;9.216;2023-07-16T04:47:35;95551.91;;;17.34;100.00
4590;BME280;2307;48.448;9.216;2023-07-16T04:50:01;95555.66;;;17.23;100.00
4590;BME280;2307;48.448;9.216;2023-07-16T04:52:27;95559.94;;;17.24;100.00
4590;BME280;2307;48.448;9.216;2023-07-16T04:54:54;95570.03;;;17.32;100.00
4590;BME280;2307;48.448;9.216;2023-07-16T04:57:21;95569.25;;;17.32;100.00
4590;BME280;2307;48.448;9.216;2023-07-16T04:59:48;95576.72;;;17.30;100.00
4590;BME280;2307;48.448;9.216;2023-07-16T05:02:14;95569.50;;;17.35;100.00
4590;BME280;2307;48.448;9.216;2023-07-16T05:04:42;95566.53;;;17.47;100.00
4590;BME280;2307;48.448;9.216;2023-07-16T05:07:12;95579.34;;;17.45;100.00
4590;BME280;2307;48.448;9.216;2023-07-16T05:09:39;95574.53;;;17.52;100.00
4590;BME280;2307;48.448;9.216;2023-07-16T05:12:05;95568.66;;;17.55;100.00
4590;BME280;2307;48.448;9.216;2023-07-16T05:14:42;95575.28;;;17.68;100.00
4590;BME280;2307;48.448;9.216;2023-07-16T05:17:08;95574.34;;;17.92;100.00
4590;BME280;2307;48.448;9.216;2023-07-16T05:19:35;95576.25;;;17.87;100.00
4590;BME280;2307;48.448;9.216;2023-07-16T05:22:01;95586.16;;;17.81;100.00
4590;BME280;2307;48.448;9.216;2023-07-16T05:24:28;95584.53;;;17.85;100.00
4590;BME280;2307;48.448;9.216;2023-07-16T05:26:54;95588.06;;;17.76;100.00
4590;BME280;2307;48.448;9.216;2023-07-16T05:29:20;95586.19;;;17.76;100.00
4590;BME280;2307;48.448;9.216;2023-07-16T05:31:48;95598.78;;;17.71;100.00
4590;BME280;2307;48.448;9.216;2023-07-16T05:34:15;95599.31;;;17.68;100.00
4590;BME280;2307;48.448;9.216;2023-07-16T05:36:41;95581.94;;;17.70;100.00
4590;BME280;2307;48.448;9.216;2023-07-16T05:39:09;95599.56;;;17.71;100.00
4590;BME280;2307;48.448;9.216;2023-07-16T05:41:37;95601.19;;;17.67;100.00
4590;BME280;2307;48.448;9.216;2023-07-16T05:44:03;95585.63;;;17.79;100.00
4590;BME280;2307;48.448;9.216;2023-07-16T05:46:30;95559.41;;;17.86;100.00
4590;BME280;2307;48.448;9.216;2023-07-16T05:48:57;95560.41;;;18.00;100.00
4590;BME280;2307;48.448;9.216;2023-07-16T05:51:24;95565.75;;;18.00;100.00
4590;BME280;2307;48.448;9.216;2023-07-16T05:53:50;95573.06;;;17.85;100.00
4590;BME280;2307;48.448;9.216;2023-07-16T05:56:17;95591.53;;;17.81;100.00
4590;BME280;2307;48.448;9.216;2023-07-16T05:58:43;95589.94;;;17.75;100.00
4590;BME280;2307;48.448;9.216;2023-07-16T06:01:09;95588.63;;;17.68;100.00
4590;BME280;2307;48.448;9.216;2023-07-16T06:03:36;95609.22;;;17.57;100.00
4590;BME280;2307;48.448;9.216;2023-07-16T06:06:03;95613.50;;;17.53;100.00
4590;BME280;2307;48.448;9.216;2023-07-16T06:08:30;95602.28;;;17.66;100.00
4590;BME280;2307;48.448;9.216;2023-07-16T06:10:56;95593.63;;;17.84;100.00
4590;BME280;2307;48.448;9.216;2023-07-16T06:13:23;95599.41;;;18.01;100.00
4590;BME280;2307;48.448;9.216;2023-07-16T06:15:49;95613.28;;;18.09;100.00
4590;BME280;2307;48.448;9.216;2023-07-16T06:18:15;95611.41;;;18.09;100.00
4590;BME280;2307;48.448;9.216;2023-07-16T06:20:43;95586.63;;;17.93;100.00
4590;BME280;2307;48.448;9.216;2023-07-16T06:23:10;95585.47;;;18.10;100.00
4590;BME280;2307;48.448;9.216;2023-07-16T06:25:36;95574.22;;;18.13;100.00
4590;BME280;2307;48.448;9.216;2023-07-16T06:28:03;95575.28;;;18.17;100.00
4590;BME280;2307;48.448;9.216;2023-07-16T06:30:30;95575.28;;;18.17;100.00
4590;BME280;2307;48.448;9.216;2023-07-16T06:32:57;95570.41;;;18.24;100.00
4590;BME280;2307;48.448;9.216;2023-07-16T06:35:24;95568.50;;;18.29;100.00
4590;BME280;2307;48.448;9.216;2023-07-16T06:37:50;95564.41;;;18.37;100.00
4590;BME280;2307;48.448;9.216;2023-07-16T06:40:18;95579.63;;;18.41;100.00
4590;BME280;2307;48.448;9.216;2023-07-16T06:42:44;95600.28;;;18.36;100.00
4590;BME280;2307;48.448;9.216;2023-07-16T06:45:11;95605.84;;;18.39;100.00
4590;BME280;2307;48.448;9.216;2023-07-16T06:47:37;95612.00;;;18.40;100.00
4590;BME280;2307;48.448;9.216;2023-07-16T06:50:04;95608.31;;;18.31;100.00
4590;BME280;2307;48.448;9.216;2023-07-16T06:52:31;95609.56;;;18.43;100.00
4590;BME280;2307;48.448;9.216;2023-07-16T06:54:57;95614.63;;;18.50;100.00
4590;BME280;2307;48.448;9.216;2023-07-16T06:57:25;95617.31;;;18.50;100.00
4590;BME280;2307;48.448;9.216;2023-07-16T06:59:51;95609.28;;;18.55;100.00
4590;BME280;2307;48.448;9.216;2023-07-16T07:02:18;95594.22;;;18.64;100.00
4590;BME280;2307;48.448;9.216;2023-07-16T07:04:45;95589.38;;;18.66;100.00
4590;BME280;2307;48.448;9.216;2023-07-16T07:07:11;95586.75;;;18.61;100.00
4590;BME280;2307;48.448;9.216;2023-07-16T07:09:37;95593.75;;;18.52;100.00
4590;BME280;2307;48.448;9.216;2023-07-16T07:12:04;95594.94;;;18.36;100.00
4590;BME280;2307;48.448;9.216;2023-07-16T07:14:32;95603.47;;;18.38;100.00
4590;BME280;2307;48.448;9.216;2023-07-16T07:16:59;95597.13;;;18.29;100.00
4590;BME280;2307;48.448;9.216;2023-07-16T07:19:25;95595.50;;;18.33;100.00
4590;BME280;2307;48.448;9.216;2023-07-16T07:21:51;95597.31;;;18.37;100.00
4590;BME280;2307;48.448;9.216;2023-07-16T07:24:18;95583.69;;;18.34;100.00
4590;BME280;2307;48.448;9.216;2023-07-16T07:26:44;95586.88;;;18.41;100.00
4590;BME280;2307;48.448;9.216;2023-07-16T07:29:11;95584.56;;;18.24;100.00
4590;BME280;2307;48.448;9.216;2023-07-16T07:31:40;95585.31;;;18.30;100.00
4590;BME280;2307;48.448;9.216;2023-07-16T07:34:06;95593.00;;;18.41;100.00
4590;BME280;2307;48.448;9.216;2023-07-16T07:36:32;95595.91;;;18.50;100.00
4590;BME280;2307;48.448;9.216;2023-07-16T07:38:59;95607.09;;;18.57;100.00
4590;BME280;2307;48.448;9.216;2023-07-16T07:41:25;95615.06;;;18.62;100.00
4590;BME280;2307;48.448;9.216;2023-07-16T07:43:51;95610.03;;;18.55;100.00
4590;BME280;2307;48.448;9.216;2023-07-16T07:46:18;95620.09;;;18.69;100.00
4590;BME280;2307;48.448;9.216;2023-07-16T07:48:46;95622.53;;;18.70;100.00
4590;BME280;2307;48.448;9.216;2023-07-16T07:51:13;95628.34;;;18.77;100.00
4590;BME280;2307;48.448;9.216;2023-07-16T07:53:39;95621.66;;;18.80;100.00
4590;BME280;2307;48.448;9.216;2023-07-16T07:56:05;95616.63;;;18.73;100.00
4590;BME280;2307;48.448;9.216;2023-07-16T07:58:32;95607.47;;;18.74;100.00
4590;BME280;2307;48.448;9.216;2023-07-16T08:01:02;95612.31;;;18.77;100.00
4590;BME280;2307;48.448;9.216;2023-07-16T08:03:29;95616.75;;;18.87;100.00
4590;BME280;2307;48.448;9.216;2023-07-16T08:05:57;95623.22;;;18.81;100.00
4590;BME280;2307;48.448;9.216;2023-07-16T08:08:23;95623.69;;;18.88;100.00
4590;BME280;2307;48.448;9.216;2023-07-16T08:10:50;95622.81;;;18.97;100.00
4590;BME280;2307;48.448;9.216;2023-07-16T08:13:16;95627.59;;;19.00;100.00
4590;BME280;2307;48.448;9.216;2023-07-16T08:15:42;95639.59;;;19.08;100.00
4590;BME280;2307;48.448;9.216;2023-07-16T08:18:09;95641.16;;;19.09;100.00
4590;BME280;2307;48.448;9.216;2023-07-16T08:20:36;95628.16;;;18.97;100.00
4590;BME280;2307;48.448;9.216;2023-07-16T08:23:04;95619.63;;;18.95;100.00
4590;BME280;2307;48.448;9.216;2023-07-16T08:25:30;95627.84;;;19.04;100.00
4590;BME280;2307;48.448;9.216;2023-07-16T08:27:57;95624.00;;;19.15;100.00
4590;BME280;2307;48.448;9.216;2023-07-16T08:30:23;95619.41;;;19.16;100.00
4590;BME280;2307;48.448;9.216;2023-07-16T08:32:50;95612.97;;;19.22;100.00
4590;BME280;2307;48.448;9.216;2023-07-16T08:35:16;95619.22;;;19.36;100.00
4590;BME280;2307;48.448;9.216;2023-07-16T08:37:44;95620.22;;;19.45;100.00
4590;BME280;2307;48.448;9.216;2023-07-16T08:40:12;95629.34;;;19.44;100.00
4590;BME280;2307;48.448;9.216;2023-07-16T08:42:39;95616.75;;;19.44;100.00
4590;BME280;2307;48.448;9.216;2023-07-16T08:45:06;95612.75;;;19.42;100.00
4590;BME280;2307;48.448;9.216;2023-07-16T08:47:35;95613.44;;;19.52;100.00
4590;BME280;2307;48.448;9.216;2023-07-16T08:50:02;95612.09;;;19.55;100.00
4590;BME280;2307;48.448;9.216;2023-07-16T08:52:28;95615.22;;;19.62;100.00
4590;BME280;2307;48.448;9.216;2023-07-16T08:54:55;95625.41;;;19.60;100.00
4590;BME280;2307;48.448;9.216;2023-07-16T08:57:23;95614.19;;;19.58;100.00
4590;BME280;2307;48.448;9.216;2023-07-16T08:59:50;95619.78;;;19.61;100.00
4590;BME280;2307;48.448;9.216;2023-07-16T09:02:17;95629.75;;;19.56;100.00
4590;BME280;2307;48.448;9.216;2023-07-16T09:04:43;95625.22;;;19.56;100.00
4590;BME280;2307;48.448;9.216;2023-07-16T09:07:09;95639.22;;;19.72;100.00
4590;BME280;2307;48.448;9.216;2023-07-16T09:09:36;95638.66;;;19.75;100.00
4590;BME280;2307;48.448;9.216;2023-07-16T09:12:02;95632.16;;;19.81;100.00
4590;BME280;2307;48.448;9.216;2023-07-16T09:14:30;95641.72;;;19.87;100.00
4590;BME280;2307;48.448;9.216;2023-07-16T09:16:57;95640.06;;;19.91;100.00
4590;BME280;2307;48.448;9.216;2023-07-16T09:19:25;95628.69;;;19.99;100.00
4590;BME280;2307;48.448;9.216;2023-07-16T09:21:51;95636.03;;;20.12;100.00
4590;BME280;2307;48.448;9.216;2023-07-16T09:24:18;95650.56;;;20.30;100.00
4590;BME280;2307;48.448;9.216;2023-07-16T09:26:48;95651.94;;;20.28;100.00
4590;BME280;2307;48.448;9.216;2023-07-16T09:29:14;95653.56;;;20.29;100.00
4590;BME280;2307;48.448;9.216;2023-07-16T09:31:51;95646.31;;;20.24;100.00
4590;BME280;2307;48.448;9.216;2023-07-16T09:34:18;95642.63;;;20.20;100.00
4590;BME280;2307;48.448;9.216;2023-07-16T09:36:46;95637.34;;;20.15;100.00
4590;BME280;2307;48.448;9.216;2023-07-16T09:39:13;95635.59;;;20.05;100.00
4590;BME280;2307;48.448;9.216;2023-07-16T09:41:39;95639.88;;;20.06;100.00
4590;BME280;2307;48.448;9.216;2023-07-16T09:44:06;95628.22;;;20.16;100.00
4590;BME280;2307;48.448;9.216;2023-07-16T09:46:33;95633.47;;;20.26;100.00
4590;BME280;2307;48.448;9.216;2023-07-16T09:49:01;95631.72;;;20.35;100.00
4590;BME280;2307;48.448;9.216;2023-07-16T09:51:27;95622.16;;;20.29;100.00
4590;BME280;2307;48.448;9.216;2023-07-16T09:53:57;95612.78;;;20.27;100.00
4590;BME280;2307;48.448;9.216;2023-07-16T09:56:27;95619.16;;;20.31;100.00
4590;BME280;2307;48.448;9.216;2023-07-16T09:58:58;95625.25;;;20.36;100.00
4590;BME280;2307;48.448;9.216;2023-07-16T10:01:25;95632.34;;;20.46;100.00
4590;BME280;2307;48.448;9.216;2023-07-16T10:03:51;95630.69;;;20.50;100.00
4590;BME280;2307;48.448;9.216;2023-07-16T10:06:19;95633.66;;;20.67;100.00
4590;BME280;2307;48.448;9.216;2023-07-16T10:08:48;95623.72;;;20.67;100.00
4590;BME280;2307;48.448;9.216;2023-07-16T10:11:15;95624.94;;;20.75;100.00
4590;BME280;2307;48.448;9.216;2023-07-16T10:13:42;95615.88;;;21.03;100.00
4590;BME280;2307;48.448;9.216;2023-07-16T10:16:10;95626.31;;;21.24;100.00
4590;BME280;2307;48.448;9.216;2023-07-16T10:18:49;95625.31;;;21.33;100.00
4590;BME280;2307;48.448;9.216;2023-07-16T10:21:22;95629.31;;;21.36;100.00
4590;BME280;2307;48.448;9.216;2023-07-16T10:23:55;95631.72;;;21.37;100.00
4590;BME280;2307;48.448;9.216;2023-07-16T10:26:26;95626.13;;;21.47;100.00
4590;BME280;2307;48.448;9.216;2023-07-16T10:28:52;95607.31;;;21.61;100.00
4590;BME280;2307;48.448;9.216;2023-07-16T10:31:20;95625.34;;;21.74;94.07
4590;BME280;2307;48.448;9.216;2023-07-16T10:33:55;95611.91;;;21.74;86.27
4590;BME280;2307;48.448;9.216;2023-07-16T10:36:23;95614.81;;;21.91;91.72
4590;BME280;2307;48.448;9.216;2023-07-16T10:38:49;95606.63;;;22.10;85.90
4590;BME280;2307;48.448;9.216;2023-07-16T10:41:16;95611.00;;;22.19;86.45
4590;BME280;2307;48.448;9.216;2023-07-16T10:43:43;95618.53;;;22.31;80.92
4590;BME280;2307;48.448;9.216;2023-07-16T10:46:09;95621.09;;;22.36;90.91
4590;BME280;2307;48.448;9.216;2023-07-16T10:48:36;95615.94;;;22.62;85.20
4590;BME280;2307;48.448;9.216;2023-07-16T10:51:02;95624.28;;;22.74;88.81
4590;BME280;2307;48.448;9.216;2023-07-16T10:53:30;95622.97;;;22.85;80.67
4590;BME280;2307;48.448;9.216;2023-07-16T10:55:58;95627.06;;;23.05;80.36
4590;BME280;2307;48.448;9.216;2023-07-16T10:58:24;95629.59;;;23.32;75.03
4590;BME280;2307;48.448;9.216;2023-07-16T11:00:51;95626.06;;;23.54;79.18
4590;BME280;2307;48.448;9.216;2023-07-16T11:03:18;95635.22;;;23.75;76.05
4590;BME280;2307;48.448;9.216;2023-07-16T11:05:45;95633.34;;;23.84;74.30
4590;BME280;2307;48.448;9.216;2023-07-16T11:08:20;95634.25;;;23.71;72.52
4590;BME280;2307;48.448;9.216;2023-07-16T11:10:53;95631.19;;;23.64;77.93
4590;BME280;2307;48.448;9.216;2023-07-16T11:13:20;95629.13;;;23.61;82.86
4590;BME280;2307;48.448;9.216;2023-07-16T11:15:50;95641.63;;;23.57;77.47
4590;BME280;2307;48.448;9.216;2023-07-16T11:18:18;95643.22;;;23.58;83.85
4590;BME280;2307;48.448;9.216;2023-07-16T11:20:44;95648.16;;;23.64;76.35
4590;BME280;2307;48.448;9.216;2023-07-16T11:23:11;95634.34;;;23.66;74.53
4590;BME280;2307;48.448;9.216;2023-07-16T11:25:37;95630.13;;;23.82;79.53
4590;BME280;2307;48.448;9.216;2023-07-16T11:28:05;95621.31;;;24.07;74.48
4590;BME280;2307;48.448;9.216;2023-07-16T11:30:31;95613.31;;;24.59;83.79
4590;BME280;2307;48.448;9.216;2023-07-16T11:32:58;95618.25;;;24.91;70.76
4590;BME280;2307;48.448;9.216;2023-07-16T11:35:24;95615.38;;;24.79;65.89
4590;BME280;2307;48.448;9.216;2023-07-16T11:37:52;95620.31;;;25.03;71.38
4590;BME280;2307;48.448;9.216;2023-07-16T11:40:18;95629.38;;;24.90;64.26
4590;BME280;2307;48.448;9.216;2023-07-16T11:42:45;95621.09;;;24.52;59.43
4590;BME280;2307;48.448;9.216;2023-07-16T11:45:16;95619.50;;;24.33;65.63
4590;BME280;2307;48.448;9.216;2023-07-16T11:47:43;95612.81;;;24.48;65.82
4590;BME280;2307;48.448;9.216;2023-07-16T11:50:10;95618.25;;;24.57;65.84
4590;BME280;2307;48.448;9.216;2023-07-16T11:52:36;95620.97;;;24.82;62.30
4590;BME280;2307;48.448;9.216;2023-07-16T11:55:03;95613.00;;;24.69;63.41
4590;BME280;2307;48.448;9.216;2023-07-16T11:57:29;95602.38;;;24.64;62.62
4590;BME280;2307;48.448;9.216;2023-07-16T11:59:56;95611.09;;;24.52;61.84
4590;BME280;2307;48.448;9.216;2023-07-16T12:02:25;95604.88;;;24.52;65.56
4590;BME280;2307;48.448;9.216;2023-07-16T12:04:52;95599.97;;;24.62;66.57
4590;BME280;2307;48.448;9.216;2023-07-16T12:09:45;95602.34;;;24.81;64.99
4590;BME280;2307;48.448;9.216;2023-07-16T12:12:12;95584.53;;;24.97;64.66
4590;BME280;2307;48.448;9.216;2023-07-16T12:14:39;95588.56;;;25.37;65.79
4590;BME280;2307;48.448;9.216;2023-07-16T12:17:05;95583.50;;;25.36;59.66
4590;BME280;2307;48.448;9.216;2023-07-16T12:19:33;95580.53;;;25.67;59.08
4590;BME280;2307;48.448;9.216;2023-07-16T12:22:00;95584.72;;;26.14;56.01
4590;BME280;2307;48.448;9.216;2023-07-16T12:24:26;95582.16;;;25.88;57.21
4590;BME280;2307;48.448;9.216;2023-07-16T12:26:52;95577.88;;;26.58;65.21
4590;BME280;2307;48.448;9.216;2023-07-16T12:29:19;95570.88;;;26.78;63.19
4590;BME280;2307;48.448;9.216;2023-07-16T12:31:46;95585.22;;;27.44;52.85
4590;BME280;2307;48.448;9.216;2023-07-16T12:34:12;95576.09;;;27.16;49.62
4590;BME280;2307;48.448;9.216;2023-07-16T12:36:40;95580.16;;;27.10;52.78
4590;BME280;2307;48.448;9.216;2023-07-16T12:39:06;95575.25;;;26.91;53.19
4590;BME280;2307;48.448;9.216;2023-07-16T12:41:33;95568.78;;;27.28;53.07
4590;BME280;2307;48.448;9.216;2023-07-16T12:43:59;95570.50;;;27.33;52.93
4590;BME280;2307;48.448;9.216;2023-07-16T12:46:25;95572.06;;;27.34;50.15
4590;BME280;2307;48.448;9.216;2023-07-16T12:48:52;95569.69;;;27.32;50.90
4590;BME280;2307;48.448;9.216;2023-07-16T12:51:18;95566.00;;;26.92;55.09
4590;BME280;2307;48.448;9.216;2023-07-16T12:53:46;95568.09;;;27.19;52.05
4590;BME280;2307;48.448;9.216;2023-07-16T12:56:12;95564.47;;;27.27;52.26
4590;BME280;2307;48.448;9.216;2023-07-16T12:58:39;95565.88;;;27.33;53.03
4590;BME280;2307;48.448;9.216;2023-07-16T13:01:05;95568.16;;;27.43;58.66
4590;BME280;2307;48.448;9.216;2023-07-16T13:03:33;95560.13;;;27.02;55.61
4590;BME280;2307;48.448;9.216;2023-07-16T13:05:59;95567.59;;;26.31;53.96
4590;BME280;2307;48.448;9.216;2023-07-16T13:08:25;95567.94;;;26.00;55.44
4590;BME280;2307;48.448;9.216;2023-07-16T13:10:53;95568.47;;;25.94;54.61
4590;BME280;2307;48.448;9.216;2023-07-16T13:13:20;95561.00;;;25.61;58.05
4590;BME280;2307;48.448;9.216;2023-07-16T13:15:46;95563.00;;;25.73;59.78